EXS8NQ LFMN-EGNM
Flight info
| Callsign | EXS8NQ |
|---|---|
| Flight time | N/A |
| Altitude | 34000 |
| Route | IRMAR DCT KINES DCT VANAS DCT MOBLO DCT UBIMA DCT GILIR DCT PENDU DCT IXILU DCT EPL/N0429F320 DCT ROUSY/N0439F360 DCT BUB DCT VICOT DCT ODVIL DCT EVELI DCT RAVLO Y70 BATLI DCT LBA |
| Aircraft | B738/M-SDE2E3FGHIRWXY/LB1 |
Departure
| Time | N/A |
|---|---|
| Airport | Nice-Côte d'Azur Airport (LFMN) |
Arrival
| Time | 2026-04-29 18:24 |
|---|---|
| Airport | Leeds Bradford Airport (EGNM) |
| Time | Latitude | Longitude | Altitude | Speed | Heading |
|---|---|---|---|---|---|
| 2026-04-29 17:54 | 53.08406 | 1.83985 | 36566 ft | 475 kts | 282° |
| 2026-04-29 17:55 | 53.09017 | 1.78567 | 36117 ft | 475 kts | 282° |
| 2026-04-29 17:55 | 53.09641 | 1.73177 | 35658 ft | 474 kts | 282° |
| 2026-04-29 17:55 | 53.10275 | 1.67812 | 35204 ft | 473 kts | 282° |
| 2026-04-29 17:55 | 53.10914 | 1.62446 | 34756 ft | 472 kts | 282° |
| 2026-04-29 17:56 | 53.11554 | 1.57100 | 34310 ft | 470 kts | 282° |
| 2026-04-29 17:56 | 53.12191 | 1.51760 | 33861 ft | 469 kts | 282° |
| 2026-04-29 17:56 | 53.12823 | 1.46443 | 33413 ft | 467 kts | 282° |
| 2026-04-29 17:56 | 53.13447 | 1.41152 | 32965 ft | 465 kts | 282° |
| 2026-04-29 17:57 | 53.14068 | 1.35874 | 32515 ft | 461 kts | 282° |
| 2026-04-29 17:57 | 53.14679 | 1.30659 | 32059 ft | 456 kts | 281° |
| 2026-04-29 17:57 | 53.15279 | 1.25510 | 31609 ft | 451 kts | 281° |
| 2026-04-29 17:57 | 53.15672 | 1.22122 | 31304 ft | 447 kts | 281° |
| 2026-04-29 17:58 | 53.16455 | 1.15357 | 30705 ft | 441 kts | 281° |
| 2026-04-29 17:58 | 53.17022 | 1.10430 | 30257 ft | 437 kts | 281° |
| 2026-04-29 17:58 | 53.17591 | 1.05473 | 29810 ft | 432 kts | 281° |
| 2026-04-29 17:58 | 53.18151 | 1.00570 | 29362 ft | 429 kts | 281° |
| 2026-04-29 17:59 | 53.18704 | 0.95707 | 28912 ft | 425 kts | 280° |
| 2026-04-29 17:59 | 53.19252 | 0.90869 | 28463 ft | 423 kts | 280° |
| 2026-04-29 17:59 | 53.19794 | 0.86071 | 28038 ft | 420 kts | 280° |
| 2026-04-29 17:59 | 53.20330 | 0.81302 | 27611 ft | 418 kts | 280° |
| 2026-04-29 18:00 | 53.20864 | 0.76537 | 27211 ft | 419 kts | 280° |
| 2026-04-29 18:00 | 53.21399 | 0.71742 | 26818 ft | 420 kts | 280° |
| 2026-04-29 18:00 | 53.21932 | 0.66960 | 26414 ft | 418 kts | 280° |
| 2026-04-29 18:00 | 53.22459 | 0.62205 | 26015 ft | 416 kts | 280° |
| 2026-04-29 18:01 | 53.22982 | 0.57466 | 25615 ft | 413 kts | 280° |
| 2026-04-29 18:01 | 53.23501 | 0.52759 | 25215 ft | 412 kts | 280° |
| 2026-04-29 18:01 | 53.24015 | 0.48072 | 24816 ft | 410 kts | 280° |
| 2026-04-29 18:01 | 53.24526 | 0.43403 | 24417 ft | 408 kts | 280° |
| 2026-04-29 18:02 | 53.25031 | 0.38739 | 24019 ft | 407 kts | 280° |
| 2026-04-29 18:02 | 53.25529 | 0.34103 | 23618 ft | 405 kts | 280° |
| 2026-04-29 18:02 | 53.26024 | 0.29476 | 23219 ft | 403 kts | 280° |
| 2026-04-29 18:02 | 53.26514 | 0.24879 | 22852 ft | 400 kts | 280° |
| 2026-04-29 18:03 | 53.26998 | 0.20314 | 22501 ft | 398 kts | 280° |
| 2026-04-29 18:03 | 53.27478 | 0.15783 | 22151 ft | 395 kts | 280° |
| 2026-04-29 18:03 | 53.27954 | 0.11279 | 21799 ft | 392 kts | 280° |
| 2026-04-29 18:03 | 53.28419 | 0.06867 | 21454 ft | 390 kts | 280° |
| 2026-04-29 18:04 | 53.29054 | 0.02484 | 21101 ft | 388 kts | 289° |
| 2026-04-29 18:04 | 53.30112 | -0.01650 | 20753 ft | 385 kts | 297° |
| 2026-04-29 18:04 | 53.31317 | -0.05709 | 20398 ft | 386 kts | 297° |
| 2026-04-29 18:04 | 53.32535 | -0.09745 | 20051 ft | 389 kts | 297° |
| 2026-04-29 18:05 | 53.33728 | -0.13739 | 19706 ft | 388 kts | 297° |
| 2026-04-29 18:05 | 53.34921 | -0.17781 | 19358 ft | 386 kts | 297° |
| 2026-04-29 18:05 | 53.36100 | -0.21816 | 19006 ft | 385 kts | 296° |
| 2026-04-29 18:05 | 53.37272 | -0.25851 | 18659 ft | 384 kts | 296° |
| 2026-04-29 18:06 | 53.38435 | -0.29869 | 18307 ft | 383 kts | 296° |
| 2026-04-29 18:06 | 53.39592 | -0.33876 | 17956 ft | 381 kts | 296° |
| 2026-04-29 18:06 | 53.40741 | -0.37858 | 17609 ft | 379 kts | 296° |
| 2026-04-29 18:06 | 53.41886 | -0.41830 | 17259 ft | 378 kts | 296° |
| 2026-04-29 18:07 | 53.43028 | -0.45797 | 16913 ft | 376 kts | 296° |
| 2026-04-29 18:07 | 53.44157 | -0.49721 | 16592 ft | 371 kts | 296° |
| 2026-04-29 18:07 | 53.45272 | -0.53603 | 16341 ft | 369 kts | 296° |
| 2026-04-29 18:07 | 53.46398 | -0.57532 | 16049 ft | 378 kts | 296° |
| 2026-04-29 18:08 | 53.47541 | -0.61535 | 15693 ft | 381 kts | 295° |
| 2026-04-29 18:08 | 53.48683 | -0.65544 | 15338 ft | 379 kts | 295° |
| 2026-04-29 18:08 | 53.49814 | -0.69520 | 15038 ft | 375 kts | 295° |
| 2026-04-29 18:08 | 53.50934 | -0.73463 | 14733 ft | 372 kts | 295° |
| 2026-04-29 18:09 | 53.52040 | -0.77367 | 14433 ft | 368 kts | 295° |
| 2026-04-29 18:09 | 53.53122 | -0.81183 | 14136 ft | 365 kts | 296° |
| 2026-04-29 18:09 | 53.54216 | -0.85033 | 13831 ft | 364 kts | 296° |
| 2026-04-29 18:09 | 53.55309 | -0.88876 | 13537 ft | 365 kts | 295° |
| 2026-04-29 18:10 | 53.56406 | -0.92749 | 13246 ft | 368 kts | 296° |
| 2026-04-29 18:10 | 53.57511 | -0.96642 | 12942 ft | 368 kts | 296° |
| 2026-04-29 18:10 | 53.58609 | -1.00522 | 12643 ft | 366 kts | 295° |
| 2026-04-29 18:10 | 53.59698 | -1.04379 | 12344 ft | 365 kts | 295° |
| 2026-04-29 18:11 | 53.60850 | -1.08167 | 12028 ft | 361 kts | 304° |
| 2026-04-29 18:11 | 53.62504 | -1.11266 | 11766 ft | 351 kts | 318° |
| 2026-04-29 18:11 | 53.64267 | -1.14032 | 11510 ft | 343 kts | 320° |
| 2026-04-29 18:11 | 53.66016 | -1.16731 | 11183 ft | 339 kts | 320° |
| 2026-04-29 18:12 | 53.67743 | -1.19404 | 10859 ft | 336 kts | 319° |
| 2026-04-29 18:12 | 53.69426 | -1.22028 | 10539 ft | 332 kts | 319° |
| 2026-04-29 18:12 | 53.71132 | -1.24706 | 10261 ft | 328 kts | 319° |
| 2026-04-29 18:12 | 53.72763 | -1.27286 | 10032 ft | 322 kts | 319° |
| 2026-04-29 18:13 | 53.74389 | -1.29866 | 9674 ft | 321 kts | 318° |
| 2026-04-29 18:13 | 53.76037 | -1.32489 | 9296 ft | 320 kts | 318° |
| 2026-04-29 18:13 | 53.77633 | -1.35033 | 8934 ft | 319 kts | 318° |
| 2026-04-29 18:13 | 53.79264 | -1.37636 | 8547 ft | 318 kts | 318° |
| 2026-04-29 18:14 | 53.80849 | -1.40172 | 8179 ft | 317 kts | 318° |
| 2026-04-29 18:14 | 53.82445 | -1.42731 | 7835 ft | 316 kts | 318° |
| 2026-04-29 18:14 | 53.84029 | -1.45271 | 7596 ft | 310 kts | 318° |
| 2026-04-29 18:14 | 53.85582 | -1.47767 | 7341 ft | 306 kts | 318° |
| 2026-04-29 18:15 | 53.87114 | -1.50230 | 7079 ft | 301 kts | 318° |
| 2026-04-29 18:15 | 53.88623 | -1.52658 | 6823 ft | 297 kts | 318° |
| 2026-04-29 18:15 | 53.89610 | -1.54248 | 6658 ft | 294 kts | 318° |
| 2026-04-29 18:15 | 53.91087 | -1.56628 | 6404 ft | 291 kts | 318° |
| 2026-04-29 18:16 | 53.92545 | -1.58981 | 6156 ft | 288 kts | 318° |
| 2026-04-29 18:16 | 53.93990 | -1.61319 | 5913 ft | 285 kts | 318° |
| 2026-04-29 18:16 | 53.95423 | -1.63635 | 5633 ft | 285 kts | 318° |
| 2026-04-29 18:16 | 53.96864 | -1.65962 | 5190 ft | 285 kts | 319° |
| 2026-04-29 18:17 | 53.98272 | -1.68247 | 5012 ft | 273 kts | 319° |
| 2026-04-29 18:17 | 53.99590 | -1.70409 | 4982 ft | 254 kts | 318° |
| 2026-04-29 18:17 | 54.00804 | -1.72489 | 4974 ft | 242 kts | 317° |
| 2026-04-29 18:17 | 54.01976 | -1.74519 | 4778 ft | 240 kts | 317° |
| 2026-04-29 18:18 | 54.03148 | -1.76559 | 4527 ft | 241 kts | 317° |
| 2026-04-29 18:18 | 54.04316 | -1.78608 | 4270 ft | 242 kts | 316° |
| 2026-04-29 18:18 | 54.05107 | -1.81114 | 4028 ft | 243 kts | 276° |
| 2026-04-29 18:18 | 54.04814 | -1.83746 | 3986 ft | 217 kts | 232° |
| 2026-04-29 18:19 | 54.03768 | -1.85341 | 3919 ft | 200 kts | 205° |
| 2026-04-29 18:19 | 54.02494 | -1.86331 | 3583 ft | 200 kts | 185° |
| 2026-04-29 18:19 | 54.01167 | -1.86432 | 3263 ft | 189 kts | 164° |
| 2026-04-29 18:19 | 53.99980 | -1.85800 | 3049 ft | 171 kts | 144° |
| 2026-04-29 18:20 | 53.98939 | -1.84777 | 3032 ft | 175 kts | 141° |
| 2026-04-29 18:20 | 53.97973 | -1.83591 | 2991 ft | 168 kts | 133° |
| 2026-04-29 18:20 | 53.97114 | -1.82298 | 2982 ft | 163 kts | 131° |
| 2026-04-29 18:20 | 53.96289 | -1.81002 | 2980 ft | 159 kts | 131° |
| 2026-04-29 18:21 | 53.95488 | -1.79757 | 2977 ft | 154 kts | 131° |
| 2026-04-29 18:21 | 53.94699 | -1.78538 | 2948 ft | 155 kts | 131° |
| 2026-04-29 18:21 | 53.93904 | -1.77318 | 2749 ft | 149 kts | 131° |
| 2026-04-29 18:21 | 53.93152 | -1.76159 | 2513 ft | 143 kts | 131° |
| 2026-04-29 18:22 | 53.92419 | -1.75031 | 2346 ft | 139 kts | 132° |
| 2026-04-29 18:22 | 53.91722 | -1.73960 | 2117 ft | 133 kts | 132° |
| 2026-04-29 18:22 | 53.91045 | -1.72915 | 1889 ft | 132 kts | 132° |
| 2026-04-29 18:22 | 53.90359 | -1.71860 | 1700 ft | 134 kts | 133° |
| 2026-04-29 18:23 | 53.89653 | -1.70772 | 1484 ft | 139 kts | 134° |
| 2026-04-29 18:23 | 53.88955 | -1.69698 | 1278 ft | 135 kts | 134° |
| 2026-04-29 18:23 | 53.88257 | -1.68600 | 1082 ft | 139 kts | 134° |
| 2026-04-29 18:23 | 53.87538 | -1.67456 | 850 ft | 142 kts | 136° |
| 2026-04-29 18:24 | 53.86797 | -1.66394 | 685 ft | 133 kts | 131° |
| 2026-04-29 18:24 | 53.86210 | -1.65455 | 674 ft | 88 kts | 137° |
| 2026-04-29 18:24 | 53.85918 | -1.65035 | 666 ft | 22 kts | 140° |
| 2026-04-29 18:24 | 53.85858 | -1.64914 | 664 ft | 7 kts | 81° |
| 2026-04-29 18:25 | 53.85893 | -1.64887 | 666 ft | 4 kts | 336° |
| 2026-04-29 18:25 | 53.85905 | -1.64950 | 665 ft | 10 kts | 289° |
| 2026-04-29 18:25 | 53.85991 | -1.65133 | 669 ft | 25 kts | 314° |
| 2026-04-29 18:25 | 53.86118 | -1.65321 | 674 ft | 23 kts | 318° |
| 2026-04-29 18:26 | 53.86246 | -1.65469 | 674 ft | 23 kts | 353° |
| 2026-04-29 18:26 | 53.86400 | -1.65449 | 673 ft | 22 kts | 4° |
| 2026-04-29 18:26 | 53.86551 | -1.65443 | 668 ft | 22 kts | 5° |
| 2026-04-29 18:26 | 53.86689 | -1.65429 | 662 ft | 11 kts | 2° |
| 2026-04-29 18:27 | 53.86767 | -1.65425 | 660 ft | 12 kts | 1° |
| 2026-04-29 18:27 | 53.86814 | -1.65516 | 662 ft | 10 kts | 274° |
| 2026-04-29 18:27 | 53.86867 | -1.65551 | 662 ft | 9 kts | 360° |